Aeroporto :
LOGIN :

Iscrizione | Disclaimer

   EN    FR    IT 

 










Sommario :    VFR   VFR Marginale   IFR   IFR Intensivo   IFR Molto Intensivo
Visibilità : 
Base nubi : 
>= 8 km
>= 3000ft
5 / 8 km
1000 / 3000 ft
1500m / 5 km
500 / 1000 ft
800 / 1500m
200 / 500 ft
< 800m
< 200 ft
Simboli :   Temporali  Nebbia  Neve Forte  Precipitazioni Forti  Vento > 20 kt
SIGMETs :   Varie  Temporali  Ghiacco  Turbolenza  Onda orograficha  Ceneri Vulcaniche






- Altitudine del aeroporto : 404 ft
- Codice IATA : WRO


EPWR - Wroclaw

ULTIMO METAR :
  • 282230Z 25010KT 9999 FEW044 03/M01 Q0998

METARs OBSOLETI :
  • 282200Z 23009KT 9999 FEW044 03/M00 Q0999
  • 282130Z 21008KT CAVOK 04/M00 Q0998
  • 282100Z 22007KT CAVOK 04/M01 Q0998
  • 282030Z 23006KT CAVOK 03/00 Q0998

TAF TAF EPWR
Valido dal 28 a 21 ore il 29 a 21 ore UTC


282030Z 2821/2921 21007KT 9999 SCT030
BECMG 2903/2906 27014KT
TEMPO 2903/2921 27018G32KT 3000 SHRASN BKN007 BKN015CB



MetMap, La meteo Aeronautica in un colpo d'occhio ! - Copyright ORBIFLY Dicembre 2007 - Disclaimer

ORBIFLY MET'MAP TEAM :

Programmazione e sviluppo : Alexandra Zaïnal
Concezione : Baudouin d'Aumeries
Aiuto per la programmazione : Marc-Olivier Méhu
Supporto tecnico e logistico : Manuel Goepfert
Aiuto per la traduzione : Arnaldo La Scala

Contatto : metmap@orbifly.com




FONTI E CREDITI :

   NOAA